Time;durP1;ratioP1;P1;durP2;ratioP2;P2;SDS_P1;SDS_P2;PMS_P1;PMS_P2;Temp;Humidity;BMP_temperature;BMP_pressure;BME280_temperature;BME280_humidity;BME280_pressure;Samples;Min_cycle;Max_cycle;Signal;HPM_P1;HPM_P2
2022/11/26 00:00:46;;;;;;;11.20;1.88;;;;;;;2.54;56.46;102303.78;5008029;28;20382;-70
2022/11/26 00:03:12;;;;;;;7.50;1.33;;;;;;;2.48;56.62;102301.09;5009045;28;20041;-70
2022/11/26 00:05:41;;;;;;;6.53;1.40;;;;;;;2.43;57.29;102306.16;5005476;28;20090;-71
2022/11/26 00:08:16;;;;;;;6.82;1.45;;;;;;;2.37;57.17;102305.19;5007414;28;20033;-70
2022/11/26 00:10:42;;;;;;;7.40;1.50;;;;;;;2.29;57.17;102307.66;4992398;28;20053;-70
2022/11/26 00:13:20;;;;;;;6.68;1.80;;;;;;;2.27;56.98;102307.63;4979761;28;20110;-70
2022/11/26 00:15:47;;;;;;;9.57;1.52;;;;;;;2.22;57.18;102309.25;5006610;28;20521;-71
2022/11/26 00:18:14;;;;;;;8.77;1.73;;;;;;;2.20;57.54;102310.94;5009140;28;20040;-71
2022/11/26 00:20:40;;;;;;;13.25;1.58;;;;;;;2.20;57.00;102316.09;5008221;28;20045;-69
2022/11/26 00:23:12;;;;;;;6.53;1.35;;;;;;;2.14;56.77;102303.09;5005809;28;20045;-66
2022/11/26 00:25:43;;;;;;;6.15;1.90;;;;;;;2.12;57.11;102315.06;4983000;28;20049;-68
2022/11/26 00:28:27;;;;;;;6.10;2.13;;;;;;;2.12;56.77;102326.25;4992109;28;20164;-69
2022/11/26 00:30:58;;;;;;;7.03;1.45;;;;;;;2.05;56.61;102326.13;4989266;28;20051;-71
2022/11/26 00:33:25;;;;;;;3.78;0.73;;;;;;;1.94;56.53;102326.78;4976728;28;20034;-71
2022/11/26 00:36:21;;;;;;;3.42;1.23;;;;;;;1.89;56.94;102328.41;5003378;28;20049;-71
2022/11/26 00:38:52;;;;;;;4.22;1.17;;;;;;;1.91;56.86;102336.19;5006879;28;20045;-71
2022/11/26 00:41:20;;;;;;;4.40;2.03;;;;;;;1.83;56.56;102338.59;5013187;28;20033;-70
2022/11/26 00:43:49;;;;;;;3.50;1.20;;;;;;;1.85;56.27;102342.06;5010855;28;20033;-70
2022/11/26 00:46:17;;;;;;;7.57;1.35;;;;;;;1.81;56.55;102348.00;5009539;28;20041;-70
2022/11/26 00:48:43;;;;;;;4.65;1.10;;;;;;;1.84;56.65;102354.94;5005451;28;20061;-70
2022/11/26 00:51:17;;;;;;;8.02;1.42;;;;;;;1.81;56.90;102350.59;5010617;28;20053;-70
2022/11/26 00:53:43;;;;;;;9.38;1.40;;;;;;;1.78;56.61;102359.97;5004518;28;20025;-70
2022/11/26 00:56:20;;;;;;;5.43;1.27;;;;;;;1.77;56.65;102364.25;5005369;28;20246;-68
2022/11/26 00:58:47;;;;;;;5.50;1.73;;;;;;;1.78;56.55;102362.56;4987793;28;20581;-67
2022/11/26 01:01:17;;;;;;;8.45;1.50;;;;;;;1.77;56.97;102365.97;4996633;28;20070;-68
2022/11/26 01:03:42;;;;;;;6.55;1.98;;;;;;;1.83;57.54;102364.38;5008236;28;20416;-68
2022/11/26 01:06:19;;;;;;;7.00;1.80;;;;;;;1.87;57.18;102363.59;5008652;28;20049;-68
2022/11/26 01:08:45;;;;;;;10.52;2.13;;;;;;;1.98;56.94;102357.81;4987401;28;20033;-68
2022/11/26 01:11:15;;;;;;;4.82;1.42;;;;;;;2.01;57.31;102373.31;4996971;28;20252;-68
2022/11/26 01:13:42;;;;;;;3.50;1.27;;;;;;;2.05;57.17;102370.84;5006629;28;20129;-68
2022/11/26 01:16:19;;;;;;;16.98;2.72;;;;;;;2.15;57.51;102371.88;4997101;28;20368;-68
2022/11/26 01:18:46;;;;;;;5.60;1.30;;;;;;;2.09;57.26;102371.78;4971373;28;20129;-69
2022/11/26 01:21:14;;;;;;;6.18;2.22;;;;;;;2.06;57.46;102374.28;5007080;28;20026;-68
2022/11/26 01:23:40;;;;;;;6.65;1.02;;;;;;;2.13;57.05;102378.72;4974375;28;20844;-68
2022/11/26 01:26:05;;;;;;;8.30;1.92;;;;;;;2.14;57.17;102380.47;5010380;28;20137;-67
2022/11/26 01:28:33;;;;;;;9.40;1.33;;;;;;;2.16;57.29;102389.09;5007468;28;20040;-69
2022/11/26 01:30:58;;;;;;;10.07;1.98;;;;;;;2.20;56.99;102388.34;5004943;28;20093;-68
2022/11/26 01:33:24;;;;;;;12.68;2.33;;;;;;;2.17;57.63;102398.56;4994383;28;20574;-68
2022/11/26 01:35:49;;;;;;;12.15;2.42;;;;;;;2.22;57.76;102401.25;5008038;28;20045;-68
2022/11/26 01:38:15;;;;;;;7.95;1.70;;;;;;;2.31;57.03;102393.66;5009741;28;20037;-69
2022/11/26 01:41:00;;;;;;;6.00;1.08;;;;;;;2.30;57.39;102405.72;4993262;28;20042;-68
2022/11/26 01:43:31;;;;;;;4.70;1.33;;;;;;;2.33;57.65;102402.31;4976875;28;20133;-68
2022/11/26 01:45:57;;;;;;;4.07;1.27;;;;;;;2.34;57.64;102410.09;5005748;28;20049;-69
2022/11/26 01:48:26;;;;;;;3.78;1.60;;;;;;;2.32;56.83;102411.78;5008995;28;20315;-69
2022/11/26 01:50:57;;;;;;;5.50;1.27;;;;;;;2.32;56.80;102406.59;5005802;28;20126;-69
2022/11/26 01:53:39;;;;;;;6.72;1.90;;;;;;;2.28;57.39;102416.84;4988391;28;20061;-68
2022/11/26 01:56:14;;;;;;;4.78;1.45;;;;;;;2.27;57.11;102408.25;5003170;28;20581;-68
2022/11/26 01:58:43;;;;;;;6.72;1.65;;;;;;;2.22;57.10;102409.88;4988657;28;20118;-69
2022/11/26 02:01:09;;;;;;;9.30;1.80;;;;;;;2.19;56.98;102414.09;5004278;28;20042;-69
2022/11/26 02:03:43;;;;;;;8.15;1.58;;;;;;;2.15;57.77;102418.31;4993336;28;20025;-69
2022/11/26 02:06:15;;;;;;;18.33;1.60;;;;;;;2.19;57.27;102414.94;5005142;28;20045;-69
2022/11/26 02:08:42;;;;;;;9.70;1.30;;;;;;;2.14;57.16;102417.44;4986326;28;20946;-70
2022/11/26 02:11:15;;;;;;;3.38;1.02;;;;;;;2.15;56.81;102413.16;4990690;28;20277;-70
2022/11/26 02:13:41;;;;;;;4.72;1.30;;;;;;;2.13;56.97;102413.13;5002850;28;20029;-71
2022/11/26 02:16:16;;;;;;;11.35;3.35;;;;;;;2.06;56.94;102423.28;5007963;28;20045;-70
2022/11/26 02:18:55;;;;;;;4.57;2.13;;;;;;;2.01;56.98;102424.91;4991441;28;20391;-70
2022/11/26 02:21:26;;;;;;;6.57;1.17;;;;;;;1.96;56.97;102431.69;5005757;28;20038;-72
2022/11/26 02:24:33;;;;;;;8.23;1.83;;;;;;;1.97;56.55;102436.00;5004251;28;20111;-73
2022/11/26 02:27:06;;;;;;;4.70;1.95;;;;;;;1.92;56.83;102441.06;4982083;28;20047;-73
2022/11/26 02:29:50;;;;;;;5.38;1.38;;;;;;;1.84;56.53;102440.00;5005980;28;20487;-73
2022/11/26 02:32:25;;;;;;;5.82;1.58;;;;;;;1.87;56.69;102447.84;4988861;28;20763;-72
2022/11/26 02:35:01;;;;;;;6.57;1.65;;;;;;;1.82;56.36;102444.25;4988106;28;20070;-69
2022/11/26 02:37:59;;;;;;;8.05;1.52;;;;;;;1.76;56.78;102445.00;4997147;28;20053;-69
2022/11/26 02:40:25;;;;;;;6.07;1.02;;;;;;;1.76;56.65;102449.31;4985418;28;20491;-70
2022/11/26 02:42:50;;;;;;;7.63;1.70;;;;;;;1.70;56.53;102443.16;4991737;28;20120;-69
2022/11/26 02:45:37;;;;;;;6.55;2.30;;;;;;;1.72;56.61;102445.78;5004851;28;20108;-68
2022/11/26 02:48:08;;;;;;;5.43;1.92;;;;;;;1.68;56.81;102449.13;5005531;28;20029;-70
2022/11/26 02:50:45;;;;;;;6.07;1.43;;;;;;;1.70;56.97;102444.88;5006958;28;22108;-69
2022/11/26 02:53:13;;;;;;;7.95;2.97;;;;;;;1.66;57.00;102450.78;5008140;28;20280;-69
2022/11/26 02:55:43;;;;;;;5.10;2.00;;;;;;;1.65;56.65;102446.50;5003881;28;20098;-69
2022/11/26 02:58:09;;;;;;;10.88;2.42;;;;;;;1.64;57.15;102445.63;5004082;28;20037;-69
2022/11/26 03:00:38;;;;;;;5.57;2.13;;;;;;;1.65;56.99;102439.63;4997256;28;20730;-68
2022/11/26 03:03:22;;;;;;;6.88;2.22;;;;;;;1.70;57.21;102448.31;4988866;28;20072;-69
2022/11/26 03:05:52;;;;;;;10.30;2.45;;;;;;;1.72;57.38;102454.38;5003253;28;20092;-69
2022/11/26 03:08:18;;;;;;;5.35;2.58;;;;;;;1.74;57.12;102451.84;5005884;28;20211;-69
2022/11/26 03:10:43;;;;;;;8.35;2.85;;;;;;;1.70;56.74;102455.19;4991117;28;20045;-69
2022/11/26 03:13:11;;;;;;;3.65;2.28;;;;;;;1.73;56.99;102453.56;4976587;28;20032;-69
2022/11/26 03:15:37;;;;;;;13.20;2.72;;;;;;;1.68;57.13;102457.72;5004231;28;20127;-69
2022/11/26 03:18:02;;;;;;;11.55;3.17;;;;;;;1.68;57.13;102455.13;5006737;28;20429;-74
2022/11/26 03:20:30;;;;;;;4.57;2.20;;;;;;;1.62;56.89;102459.31;4992678;28;20049;-75
2022/11/26 03:22:56;;;;;;;5.10;1.90;;;;;;;1.65;57.22;102473.13;5013526;28;20402;-75
2022/11/26 03:25:21;;;;;;;9.18;2.17;;;;;;;1.63;57.21;102458.47;5010965;28;20493;-74
2022/11/26 03:27:46;;;;;;;12.50;2.72;;;;;;;1.64;57.40;102458.50;5010502;28;20022;-76
2022/11/26 03:30:12;;;;;;;9.65;2.72;;;;;;;1.67;57.16;102468.00;5012618;28;20099;-75
2022/11/26 03:32:38;;;;;;;8.65;2.22;;;;;;;1.65;57.13;102465.41;5000024;28;20045;-75
2022/11/26 03:35:04;;;;;;;5.20;2.35;;;;;;;1.70;57.12;102470.66;4999541;28;20121;-75
2022/11/26 03:37:30;;;;;;;4.28;2.22;;;;;;;1.64;57.26;102455.94;4982063;28;20052;-75
2022/11/26 03:39:55;;;;;;;4.90;2.55;;;;;;;1.70;57.08;102466.34;4996618;28;21336;-74
2022/11/26 03:42:20;;;;;;;12.63;2.65;;;;;;;1.69;56.98;102468.91;4991819;28;20029;-74
2022/11/26 03:44:46;;;;;;;8.43;2.35;;;;;;;1.67;57.28;102470.59;5011116;28;20056;-69
2022/11/26 03:47:11;;;;;;;7.82;2.35;;;;;;;1.61;57.29;102476.47;5006691;28;20164;-70
2022/11/26 03:49:37;;;;;;;9.20;2.03;;;;;;;1.72;57.21;102480.16;4992350;28;20033;-70
2022/11/26 03:52:02;;;;;;;8.82;2.50;;;;;;;1.77;57.27;102477.69;5006755;28;20116;-68
2022/11/26 03:54:28;;;;;;;11.02;2.72;;;;;;;1.76;56.73;102478.53;5011663;28;20029;-67
2022/11/26 03:56:54;;;;;;;6.30;2.75;;;;;;;1.74;56.85;102482.78;5006627;28;20041;-67
2022/11/26 03:59:19;;;;;;;6.80;1.75;;;;;;;1.69;57.65;102490.41;5007192;28;20056;-67
2022/11/26 04:01:44;;;;;;;9.40;3.28;;;;;;;1.56;58.30;102488.38;4993421;28;20156;-70
2022/11/26 04:04:15;;;;;;;6.35;2.30;;;;;;;1.70;57.65;102489.56;5005560;28;20122;-69
2022/11/26 04:06:40;;;;;;;8.95;2.78;;;;;;;1.64;58.03;102496.28;5006578;28;20088;-69
2022/11/26 04:09:06;;;;;;;4.18;3.47;;;;;;;1.62;58.06;102492.81;4993851;28;20137;-69
2022/11/26 04:11:31;;;;;;;10.00;2.88;;;;;;;1.70;57.41;102489.56;5007795;28;20392;-69
2022/11/26 04:13:57;;;;;;;12.20;3.25;;;;;;;1.55;58.45;102496.06;5005583;28;20333;-68
2022/11/26 04:16:22;;;;;;;10.75;2.65;;;;;;;1.72;57.84;102499.91;4990074;28;20067;-69
2022/11/26 04:18:48;;;;;;;14.73;2.92;;;;;;;1.79;57.50;102506.09;4977482;28;20455;-68
2022/11/26 04:21:13;;;;;;;10.38;3.03;;;;;;;1.69;58.18;102511.03;4996756;28;20526;-69
2022/11/26 04:23:39;;;;;;;8.73;3.20;;;;;;;1.61;58.90;102511.69;5005528;28;20064;-68
2022/11/26 04:26:05;;;;;;;12.20;4.18;;;;;;;1.30;59.96;102516.06;5008979;28;20045;-68
2022/11/26 04:28:31;;;;;;;9.30;3.42;;;;;;;1.68;58.36;102519.59;5006424;28;20048;-69
2022/11/26 04:30:58;;;;;;;13.05;3.40;;;;;;;1.73;58.22;102524.88;5005049;28;20056;-68
2022/11/26 04:33:26;;;;;;;10.30;3.45;;;;;;;1.76;58.16;102527.50;5009227;28;20734;-69
2022/11/26 04:35:53;;;;;;;9.00;3.40;;;;;;;1.76;57.68;102530.09;4988458;28;20073;-69
2022/11/26 04:38:18;;;;;;;15.25;3.85;;;;;;;1.72;57.74;102530.84;4987177;28;20511;-71
2022/11/26 04:40:44;;;;;;;8.88;3.25;;;;;;;1.77;57.47;102529.25;4992970;28;20320;-69
2022/11/26 04:43:12;;;;;;;11.13;4.38;;;;;;;1.79;57.13;102535.31;4996967;28;20490;-74
2022/11/26 04:45:37;;;;;;;7.35;3.35;;;;;;;1.68;57.21;102534.19;4976214;28;20049;-74
2022/11/26 04:48:06;;;;;;;9.55;3.83;;;;;;;1.67;57.27;102533.31;5003072;28;20034;-74
2022/11/26 04:50:31;;;;;;;10.35;3.42;;;;;;;1.68;57.26;102539.34;4978641;28;20041;-74
2022/11/26 04:52:57;;;;;;;12.18;4.68;;;;;;;1.67;57.19;102542.75;5000246;28;20076;-74
2022/11/26 04:55:24;;;;;;;6.55;2.92;;;;;;;1.61;57.58;102547.75;4978422;28;20104;-75
2022/11/26 04:57:50;;;;;;;11.05;4.03;;;;;;;1.66;57.69;102543.59;4991872;28;20037;-75
2022/11/26 05:00:16;;;;;;;11.65;3.80;;;;;;;1.66;57.39;102552.22;4997046;28;20280;-75
2022/11/26 05:02:42;;;;;;;11.65;3.65;;;;;;;1.55;57.62;102556.25;5028488;28;20037;-73
2022/11/26 05:05:08;;;;;;;15.90;5.28;;;;;;;1.67;57.49;102553.06;5019722;28;20032;-69
2022/11/26 05:07:33;;;;;;;21.60;4.60;;;;;;;1.47;58.27;102561.19;5023237;28;20056;-70
2022/11/26 05:09:59;;;;;;;15.95;4.03;;;;;;;1.59;58.37;102562.31;5023565;28;20034;-68
2022/11/26 05:12:24;;;;;;;15.90;5.32;;;;;;;1.65;57.75;102559.91;5016473;28;20140;-68
2022/11/26 05:14:50;;;;;;;15.68;4.93;;;;;;;1.60;58.51;102566.66;5021896;28;20065;-68
2022/11/26 05:17:15;;;;;;;12.25;4.60;;;;;;;1.62;58.41;102563.28;4991105;28;20056;-68
2022/11/26 05:19:41;;;;;;;9.80;3.97;;;;;;;1.72;58.09;102561.78;5019584;28;20033;-68
2022/11/26 05:22:06;;;;;;;15.93;3.58;;;;;;;1.73;57.67;102563.53;5019926;28;20076;-68
2022/11/26 05:24:31;;;;;;;13.93;4.75;;;;;;;1.66;57.71;102567.69;5018962;28;20034;-68
2022/11/26 05:26:57;;;;;;;14.48;4.45;;;;;;;1.66;57.60;102580.56;5018377;28;20041;-68
2022/11/26 05:29:23;;;;;;;11.70;4.72;;;;;;;1.61;58.09;102578.69;5019267;28;20102;-68
2022/11/26 05:31:48;;;;;;;12.32;4.88;;;;;;;1.61;58.40;102579.56;4994731;28;20041;-67
2022/11/26 05:34:14;;;;;;;12.20;4.05;;;;;;;1.35;59.25;102588.31;5007733;28;20546;-68
2022/11/26 05:36:39;;;;;;;10.98;4.68;;;;;;;1.68;58.15;102593.47;5002066;28;20042;-67
2022/11/26 05:39:05;;;;;;;14.35;4.03;;;;;;;1.30;59.60;102593.34;5015954;28;20080;-67
2022/11/26 05:41:30;;;;;;;14.75;4.07;;;;;;;1.41;59.68;102594.53;5015974;28;20128;-68
2022/11/26 05:43:56;;;;;;;12.52;5.47;;;;;;;1.61;59.02;102596.75;5017215;28;20048;-67
2022/11/26 05:46:21;;;;;;;9.70;4.55;;;;;;;1.64;58.29;102594.22;5016926;28;20434;-75
2022/11/26 05:48:47;;;;;;;13.43;5.30;;;;;;;1.63;58.17;102595.06;5021453;28;20033;-68
2022/11/26 05:51:12;;;;;;;9.10;3.90;;;;;;;1.64;58.17;102599.38;5001669;28;20065;-68
2022/11/26 05:53:37;;;;;;;9.40;4.80;;;;;;;1.70;57.83;102610.72;5008406;28;20049;-67
2022/11/26 05:56:03;;;;;;;16.85;4.60;;;;;;;1.65;57.43;102602.00;5000602;28;20069;-66
2022/11/26 05:58:29;;;;;;;9.07;4.03;;;;;;;1.62;57.74;102598.50;5019911;28;20318;-67
2022/11/26 06:00:54;;;;;;;12.32;5.78;;;;;;;1.62;57.89;102601.06;4999198;28;20121;-66
2022/11/26 06:03:20;;;;;;;10.55;4.88;;;;;;;1.45;58.88;102605.78;5017770;28;20033;-66
2022/11/26 06:05:45;;;;;;;9.88;4.65;;;;;;;1.63;58.37;102607.97;5013583;28;20094;-65
2022/11/26 06:08:13;;;;;;;9.40;4.82;;;;;;;1.65;57.88;102607.16;5013472;28;20261;-68
2022/11/26 06:10:41;;;;;;;8.05;5.05;;;;;;;1.62;57.50;102603.66;5012854;28;20116;-68
2022/11/26 06:13:06;;;;;;;17.08;4.65;;;;;;;1.54;58.21;102606.03;5016180;28;20037;-69
2022/11/26 06:15:32;;;;;;;12.32;4.95;;;;;;;1.49;58.98;102605.91;4997153;28;20050;-70
2022/11/26 06:17:58;;;;;;;16.52;5.63;;;;;;;1.58;58.45;102609.56;5004098;28;20128;-78
2022/11/26 06:20:23;;;;;;;10.65;5.40;;;;;;;1.51;59.15;102603.38;4986249;28;20050;-69
2022/11/26 06:22:48;;;;;;;14.38;6.00;;;;;;;1.65;58.43;102608.88;5000557;28;20040;-70
2022/11/26 06:25:14;;;;;;;11.57;5.70;;;;;;;1.62;58.86;102608.81;4996971;28;20055;-72
2022/11/26 06:27:40;;;;;;;10.73;5.85;;;;;;;1.71;58.58;102601.31;5012425;28;20425;-70
2022/11/26 06:30:08;;;;;;;12.32;5.10;;;;;;;1.73;58.22;102604.78;5015164;28;20049;-71
2022/11/26 06:32:33;;;;;;;7.70;5.07;;;;;;;1.75;57.98;102602.22;5015447;28;20029;-71
2022/11/26 06:34:59;;;;;;;11.77;4.80;;;;;;;1.74;57.56;102606.53;5011020;28;20556;-72
2022/11/26 06:37:24;;;;;;;14.52;6.70;;;;;;;1.66;57.41;102615.75;5010752;28;20548;-70
2022/11/26 06:39:51;;;;;;;14.85;6.18;;;;;;;1.32;59.44;102614.88;5001640;28;20225;-71
2022/11/26 06:42:17;;;;;;;17.50;5.65;;;;;;;1.65;57.95;102621.75;4978915;28;20064;-71
2022/11/26 06:44:42;;;;;;;12.05;5.78;;;;;;;1.58;58.18;102625.03;4994296;28;20071;-70
2022/11/26 06:47:14;;;;;;;12.10;5.15;;;;;;;1.68;57.78;102635.59;4999282;28;20133;-72
2022/11/26 06:49:39;;;;;;;15.07;5.93;;;;;;;1.62;57.77;102632.00;5000639;28;20033;-71
2022/11/26 06:52:05;;;;;;;11.02;6.35;;;;;;;1.42;58.16;102639.22;5011107;28;20107;-71
2022/11/26 06:54:30;;;;;;;18.58;5.97;;;;;;;1.55;58.22;102640.38;4980524;28;20132;-72
2022/11/26 06:56:56;;;;;;;13.18;6.00;;;;;;;1.61;58.19;102638.84;4990806;28;20069;-72
2022/11/26 06:59:21;;;;;;;8.93;5.15;;;;;;;1.64;57.74;102646.69;5013260;28;20585;-73
2022/11/26 07:01:47;;;;;;;13.45;5.32;;;;;;;1.67;57.54;102644.16;4984862;28;20037;-76
2022/11/26 07:04:13;;;;;;;12.80;5.95;;;;;;;1.65;57.58;102652.69;4999217;28;20639;-70
2022/11/26 07:06:43;;;;;;;10.75;5.95;;;;;;;1.65;57.57;102652.69;4982105;28;20049;-71
2022/11/26 07:09:09;;;;;;;11.73;7.28;;;;;;;1.60;57.61;102652.59;4980905;28;20196;-71
2022/11/26 07:11:37;;;;;;;20.30;7.47;;;;;;;1.56;57.96;102653.31;5005667;28;20236;-71
2022/11/26 07:14:03;;;;;;;13.20;6.13;;;;;;;1.61;57.89;102658.59;4980224;28;20059;-69
2022/11/26 07:16:29;;;;;;;15.90;5.15;;;;;;;1.58;57.83;102661.97;4993222;28;20053;-70
2022/11/26 07:18:56;;;;;;;12.68;6.30;;;;;;;1.64;57.67;102664.72;5008224;28;20092;-73
2022/11/26 07:21:22;;;;;;;11.40;5.70;;;;;;;1.59;57.72;102662.84;4988496;28;20038;-80
2022/11/26 07:23:49;;;;;;;11.88;5.18;;;;;;;1.59;58.26;102663.69;5006724;28;20034;-80
2022/11/26 07:26:16;;;;;;;17.17;6.55;;;;;;;0.79;60.67;102671.78;5017143;28;20037;-73
2022/11/26 07:28:41;;;;;;;20.08;6.63;;;;;;;1.45;59.22;102670.22;5013654;28;20088;-73
2022/11/26 07:31:11;;;;;;;12.32;6.82;;;;;;;1.58;59.00;102664.56;5006087;28;20049;-71
2022/11/26 07:33:37;;;;;;;10.23;6.20;;;;;;;1.68;58.17;102673.38;4972351;28;20505;-72
2022/11/26 07:36:06;;;;;;;12.00;5.55;;;;;;;1.51;58.83;102680.69;5008600;28;20060;-70
2022/11/26 07:38:31;;;;;;;9.77;5.50;;;;;;;1.68;58.95;102671.66;4991367;28;20100;-68
2022/11/26 07:41:05;;;;;;;7.00;5.20;;;;;;;1.86;58.46;102679.03;5002509;28;20514;-68
2022/11/26 07:43:33;;;;;;;11.23;6.22;;;;;;;1.94;57.94;102679.22;4996207;28;20502;-69
2022/11/26 07:46:04;;;;;;;8.57;5.22;;;;;;;1.91;57.87;102677.44;4986157;28;20373;-70
2022/11/26 07:48:31;;;;;;;11.50;6.05;;;;;;;1.92;57.72;102688.63;5005664;28;20037;-68
2022/11/26 07:51:01;;;;;;;9.32;5.78;;;;;;;1.91;57.57;102689.47;5003605;28;20049;-69
2022/11/26 07:53:30;;;;;;;12.43;6.50;;;;;;;1.91;57.93;102692.91;5007929;28;20100;-68
2022/11/26 07:55:55;;;;;;;26.60;7.60;;;;;;;1.98;58.00;102690.50;5003197;28;20048;-70
2022/11/26 07:58:21;;;;;;;8.93;5.68;;;;;;;1.76;58.24;102683.91;4990078;28;20030;-67
2022/11/26 08:00:46;;;;;;;12.23;5.65;;;;;;;1.84;58.69;102685.84;4977357;28;20572;-69
2022/11/26 08:03:12;;;;;;;17.48;6.03;;;;;;;2.15;57.96;102681.44;5006295;28;20116;-70
2022/11/26 08:05:44;;;;;;;18.60;6.97;;;;;;;1.97;58.79;102687.00;5002118;28;20499;-68
2022/11/26 08:08:10;;;;;;;13.50;6.18;;;;;;;2.18;58.30;102690.97;4994977;28;20025;-69
2022/11/26 08:10:37;;;;;;;12.15;7.30;;;;;;;2.14;58.16;102695.19;5006865;28;20041;-71
2022/11/26 08:13:02;;;;;;;8.75;5.85;;;;;;;2.24;58.05;102706.59;4993449;28;20034;-70
2022/11/26 08:15:28;;;;;;;10.48;5.82;;;;;;;2.06;58.60;102702.72;5009762;28;20141;-71
2022/11/26 08:17:57;;;;;;;14.90;6.13;;;;;;;1.91;58.51;102698.06;4983249;28;20029;-68
2022/11/26 08:20:23;;;;;;;23.15;6.40;;;;;;;2.08;58.55;102705.34;5009614;28;20104;-68
2022/11/26 08:22:49;;;;;;;10.13;6.38;;;;;;;2.21;58.58;102704.81;5008892;28;20494;-67
2022/11/26 08:25:15;;;;;;;19.13;7.05;;;;;;;2.45;57.57;102707.09;5010190;28;20026;-67
2022/11/26 08:27:40;;;;;;;44.20;7.13;;;;;;;1.77;59.08;102708.84;4994761;28;20136;-64
2022/11/26 08:30:07;;;;;;;28.50;6.47;;;;;;;1.78;59.43;102702.88;5009187;28;20038;-68
2022/11/26 08:32:33;;;;;;;10.93;6.38;;;;;;;2.35;58.44;102711.19;5009881;28;20045;-69
2022/11/26 08:34:59;;;;;;;20.25;6.43;;;;;;;2.42;58.63;102706.16;5005659;28;20525;-66
2022/11/26 08:37:24;;;;;;;42.13;8.02;;;;;;;2.44;58.32;102712.22;4994478;28;20041;-67
2022/11/26 08:39:50;;;;;;;41.17;7.65;;;;;;;2.23;58.33;102710.88;5007640;28;20122;-68
2022/11/26 08:42:15;;;;;;;37.50;7.90;;;;;;;2.27;58.57;102709.25;4997910;28;20041;-69
2022/11/26 08:44:41;;;;;;;17.73;6.95;;;;;;;2.25;58.55;102709.22;5009506;28;20526;-68
2022/11/26 08:47:07;;;;;;;36.25;8.48;;;;;;;2.68;58.07;102710.19;4998762;28;20560;-66
2022/11/26 08:49:33;;;;;;;34.60;9.00;;;;;;;2.83;57.81;102714.84;5008856;28;20149;-69
2022/11/26 08:51:58;;;;;;;39.25;8.45;;;;;;;2.50;58.70;102720.13;4991997;28;20502;-67
2022/11/26 08:54:24;;;;;;;40.83;8.15;;;;;;;2.62;58.56;102715.22;5009764;28;20057;-67
2022/11/26 08:56:49;;;;;;;22.60;8.38;;;;;;;3.05;58.25;102723.06;5011096;28;20060;-69
2022/11/26 08:59:16;;;;;;;19.38;7.50;;;;;;;3.14;58.11;102725.84;4979137;28;20030;-68
2022/11/26 09:01:41;;;;;;;26.92;7.75;;;;;;;2.81;58.55;102725.97;5008193;28;20377;-69
2022/11/26 09:04:07;;;;;;;54.58;9.10;;;;;;;3.06;58.11;102725.66;5006597;28;20041;-68
2022/11/26 09:06:37;;;;;;;13.65;7.43;;;;;;;3.22;58.40;102725.97;4980479;28;20045;-67
2022/11/26 09:09:13;;;;;;;34.78;8.25;;;;;;;2.59;59.83;102738.41;4980851;28;20052;-67
2022/11/26 09:11:44;;;;;;;28.13;6.60;;;;;;;2.52;59.28;102731.34;5002658;28;20046;-68
2022/11/26 09:14:10;;;;;;;14.85;7.03;;;;;;;2.85;58.79;102730.38;5010110;28;20035;-68
2022/11/26 09:16:37;;;;;;;24.08;7.55;;;;;;;2.24;59.97;102737.53;5007531;28;20128;-67
2022/11/26 09:19:05;;;;;;;21.85;6.70;;;;;;;2.77;59.08;102735.34;4995498;28;20436;-68
2022/11/26 09:21:32;;;;;;;18.23;7.38;;;;;;;2.80;58.98;102735.44;5012266;28;20041;-68
2022/11/26 09:23:58;;;;;;;11.77;6.72;;;;;;;3.13;58.17;102743.03;5008122;28;20523;-68
2022/11/26 09:26:24;;;;;;;12.93;7.35;;;;;;;2.92;58.29;102745.16;5006773;28;20584;-68
2022/11/26 09:28:50;;;;;;;14.57;7.90;;;;;;;3.06;59.01;102743.75;5007978;28;20485;-68
2022/11/26 09:31:16;;;;;;;30.48;11.13;;;;;;;2.46;59.51;102751.84;5006504;28;20085;-67
2022/11/26 09:33:43;;;;;;;17.15;8.65;;;;;;;2.98;59.43;102756.50;5008100;28;20041;-68
2022/11/26 09:36:11;;;;;;;18.48;9.18;;;;;;;3.48;58.37;102742.91;5008791;28;20045;-68
2022/11/26 09:38:37;;;;;;;13.32;8.32;;;;;;;3.18;58.70;102749.19;5005331;28;20367;-68
2022/11/26 09:41:27;;;;;;;26.77;9.48;;;;;;;3.44;58.22;102754.03;5007258;28;20037;-66
2022/11/26 09:44:05;;;;;;;22.58;10.43;;;;;;;3.38;58.61;102756.47;5005281;28;20076;-68
2022/11/26 09:46:39;;;;;;;26.25;9.35;;;;;;;2.22;61.69;102753.00;5003991;28;20459;-68
2022/11/26 09:49:04;;;;;;;25.48;9.68;;;;;;;3.18;59.52;102754.34;5005783;28;20353;-68
2022/11/26 09:51:32;;;;;;;23.23;8.85;;;;;;;3.14;59.70;102749.94;5005243;28;20041;-68
2022/11/26 09:54:00;;;;;;;17.10;8.93;;;;;;;3.71;58.85;102763.16;5005491;28;20040;-67
2022/11/26 09:56:26;;;;;;;24.88;8.30;;;;;;;2.61;60.17;102764.25;5003345;23;20108;-68
2022/11/26 09:59:03;;;;;;;22.58;10.52;;;;;;;2.92;60.11;102761.53;4977167;28;20034;-68
2022/11/26 10:01:31;;;;;;;18.42;8.32;;;;;;;3.42;59.89;102760.88;4975037;28;20419;-67
2022/11/26 10:03:57;;;;;;;29.38;8.98;;;;;;;3.45;59.36;102770.41;4990680;28;20125;-68
2022/11/26 10:06:47;;;;;;;21.95;9.55;;;;;;;3.46;59.42;102770.44;4972172;28;20492;-68
2022/11/26 10:09:43;;;;;;;14.60;7.90;;;;;;;3.97;58.72;102772.28;4971847;28;20045;-68
2022/11/26 10:12:36;;;;;;;26.05;8.80;;;;;;;3.28;60.27;102777.78;4940587;28;20089;-68
2022/11/26 10:15:23;;;;;;;30.40;8.80;;;;;;;3.19;60.49;102779.34;4975165;28;20038;-68
2022/11/26 10:18:04;;;;;;;34.80;10.73;;;;;;;3.92;59.08;102779.09;4971146;28;20125;-68
2022/11/26 10:20:49;;;;;;;17.98;7.43;;;;;;;4.20;58.30;102775.25;4983150;28;20479;-68
2022/11/26 10:23:22;;;;;;;19.83;10.02;;;;;;;4.05;59.16;102776.72;4974258;28;20029;-68
2022/11/26 10:26:06;;;;;;;25.30;9.07;;;;;;;3.43;60.44;102774.69;4973574;28;20042;-68
2022/11/26 10:28:49;;;;;;;23.45;8.32;;;;;;;3.69;60.25;102773.47;4980026;28;20062;-68
2022/11/26 10:31:23;;;;;;;30.52;9.32;;;;;;;3.50;61.05;102771.38;4975641;28;20055;-68
2022/11/26 10:33:48;;;;;;;22.15;9.48;;;;;;;3.95;59.43;102773.09;4973901;28;20030;-68
2022/11/26 10:36:23;;;;;;;34.90;9.73;;;;;;;3.54;60.34;102778.38;4975757;28;20407;-68
2022/11/26 10:38:49;;;;;;;20.90;8.95;;;;;;;3.70;60.52;102775.22;4973622;28;20065;-67
2022/11/26 10:41:14;;;;;;;24.67;9.05;;;;;;;4.24;59.35;102768.44;4972829;28;20272;-65
2022/11/26 10:43:40;;;;;;;25.70;10.98;;;;;;;4.33;59.13;102772.91;4975384;28;20061;-67
2022/11/26 10:46:06;;;;;;;38.95;10.18;;;;;;;3.64;60.52;102771.66;4960193;28;20049;-66
2022/11/26 10:48:33;;;;;;;26.25;11.00;;;;;;;4.04;60.44;102775.84;4975675;28;20112;-67
2022/11/26 10:51:18;;;;;;;24.73;10.93;;;;;;;3.82;61.01;102781.47;4974085;28;20168;-69
2022/11/26 10:53:54;;;;;;;18.70;9.88;;;;;;;4.51;59.28;102782.69;4974110;28;20486;-66
2022/11/26 10:56:40;;;;;;;32.60;10.32;;;;;;;3.82;60.02;102779.75;4974086;28;20108;-66
2022/11/26 10:59:35;;;;;;;27.10;10.60;;;;;;;4.56;59.12;102776.72;4974662;28;20027;-65
2022/11/26 11:02:19;;;;;;;29.08;10.40;;;;;;;4.42;59.22;102778.22;4974992;28;20372;-66
2022/11/26 11:04:48;;;;;;;23.55;11.27;;;;;;;4.84;58.60;102772.81;4981654;28;20113;-66
2022/11/26 11:07:40;;;;;;;27.13;10.93;;;;;;;4.73;59.23;102774.38;4976093;28;20038;-64
2022/11/26 11:10:11;;;;;;;32.97;10.15;;;;;;;4.87;59.00;102773.72;4982171;28;20038;-65
2022/11/26 11:12:41;;;;;;;26.42;9.80;;;;;;;4.88;58.52;102765.13;4972972;28;20557;-66
2022/11/26 11:15:23;;;;;;;28.80;12.15;;;;;;;4.22;60.42;102770.97;4974200;28;20042;-66
2022/11/26 11:18:05;;;;;;;23.75;10.35;;;;;;;4.78;58.84;102775.31;4970775;28;20053;-66
2022/11/26 11:20:32;;;;;;;21.50;9.68;;;;;;;4.92;59.20;102780.75;4971152;28;20046;-65
2022/11/26 11:23:05;;;;;;;27.27;10.32;;;;;;;4.85;59.24;102768.50;4983404;28;20030;-64
2022/11/26 11:25:37;;;;;;;26.30;12.48;;;;;;;5.02;58.57;102773.97;4980284;28;20053;-64
2022/11/26 11:28:20;;;;;;;22.15;10.68;;;;;;;4.30;60.56;102772.84;4975905;28;20267;-66
2022/11/26 11:30:55;;;;;;;21.55;9.98;;;;;;;4.57;60.29;102772.41;4956975;28;20049;-66
2022/11/26 11:33:24;;;;;;;26.63;12.55;;;;;;;4.78;59.92;102780.50;4976680;28;20089;-64
2022/11/26 11:36:12;;;;;;;24.90;11.63;;;;;;;5.07;59.80;102769.72;4972291;28;20054;-66